sensor_id;sensor_type;location;lat;lon;timestamp;P1;durP1;ratioP1;P2;durP2;ratioP2
38693;SDS011;24447;43.460;25.744;2023-04-15T00:00:09;13.38;;;4.47;;
38693;SDS011;24447;43.460;25.744;2023-04-15T00:02:36;20.13;;;6.95;;
38693;SDS011;24447;43.460;25.744;2023-04-15T00:05:02;4.07;;;2.13;;
38693;SDS011;24447;43.460;25.744;2023-04-15T00:07:29;12.77;;;4.82;;
38693;SDS011;24447;43.460;25.744;2023-04-15T00:09:55;7.75;;;2.83;;
38693;SDS011;24447;43.460;25.744;2023-04-15T00:12:26;18.48;;;7.25;;
38693;SDS011;24447;43.460;25.744;2023-04-15T00:14:52;12.02;;;4.45;;
38693;SDS011;24447;43.460;25.744;2023-04-15T00:17:18;9.40;;;2.90;;
38693;SDS011;24447;43.460;25.744;2023-04-15T00:19:45;5.22;;;2.22;;
38693;SDS011;24447;43.460;25.744;2023-04-15T00:22:11;6.13;;;2.28;;
38693;SDS011;24447;43.460;25.744;2023-04-15T00:24:38;2.70;;;2.25;;
38693;SDS011;24447;43.460;25.744;2023-04-15T00:27:04;8.82;;;1.75;;
38693;SDS011;24447;43.460;25.744;2023-04-15T00:29:30;4.13;;;1.20;;
38693;SDS011;24447;43.460;25.744;2023-04-15T00:31:56;4.70;;;1.83;;
38693;SDS011;24447;43.460;25.744;2023-04-15T00:34:22;5.13;;;1.48;;
38693;SDS011;24447;43.460;25.744;2023-04-15T00:36:49;6.78;;;3.75;;
38693;SDS011;24447;43.460;25.744;2023-04-15T00:39:16;6.90;;;3.38;;
38693;SDS011;24447;43.460;25.744;2023-04-15T00:41:43;2.45;;;1.38;;
38693;SDS011;24447;43.460;25.744;2023-04-15T00:44:09;4.50;;;2.17;;
38693;SDS011;24447;43.460;25.744;2023-04-15T00:46:36;2.88;;;1.70;;
38693;SDS011;24447;43.460;25.744;2023-04-15T00:49:02;5.18;;;2.45;;
38693;SDS011;24447;43.460;25.744;2023-04-15T00:51:29;3.42;;;2.25;;
38693;SDS011;24447;43.460;25.744;2023-04-15T00:53:57;3.70;;;1.55;;
38693;SDS011;24447;43.460;25.744;2023-04-15T00:56:24;4.15;;;1.45;;
38693;SDS011;24447;43.460;25.744;2023-04-15T00:58:51;2.80;;;1.60;;
38693;SDS011;24447;43.460;25.744;2023-04-15T01:01:20;8.00;;;1.73;;
38693;SDS011;24447;43.460;25.744;2023-04-15T01:03:47;5.45;;;2.70;;
38693;SDS011;24447;43.460;25.744;2023-04-15T01:06:15;23.75;;;8.18;;
38693;SDS011;24447;43.460;25.744;2023-04-15T01:08:41;38.45;;;12.55;;
38693;SDS011;24447;43.460;25.744;2023-04-15T01:11:07;43.47;;;13.82;;
38693;SDS011;24447;43.460;25.744;2023-04-15T01:13:34;32.13;;;9.60;;
38693;SDS011;24447;43.460;25.744;2023-04-15T01:16:00;21.77;;;7.60;;
38693;SDS011;24447;43.460;25.744;2023-04-15T01:18:27;12.23;;;4.07;;
38693;SDS011;24447;43.460;25.744;2023-04-15T01:20:54;3.00;;;1.67;;
38693;SDS011;24447;43.460;25.744;2023-04-15T01:23:20;6.10;;;2.08;;
38693;SDS011;24447;43.460;25.744;2023-04-15T01:25:50;6.53;;;2.55;;
38693;SDS011;24447;43.460;25.744;2023-04-15T01:28:18;4.20;;;1.80;;
38693;SDS011;24447;43.460;25.744;2023-04-15T01:30:44;5.07;;;2.47;;
38693;SDS011;24447;43.460;25.744;2023-04-15T01:33:10;4.85;;;2.03;;
38693;SDS011;24447;43.460;25.744;2023-04-15T01:35:36;6.82;;;2.03;;
38693;SDS011;24447;43.460;25.744;2023-04-15T01:38:04;41.00;;;20.05;;
38693;SDS011;24447;43.460;25.744;2023-04-15T01:40:32;10.07;;;4.57;;
38693;SDS011;24447;43.460;25.744;2023-04-15T01:42:59;5.97;;;2.60;;
38693;SDS011;24447;43.460;25.744;2023-04-15T01:45:28;7.95;;;3.15;;
38693;SDS011;24447;43.460;25.744;2023-04-15T01:47:54;13.63;;;4.22;;
38693;SDS011;24447;43.460;25.744;2023-04-15T01:50:20;6.68;;;3.40;;
38693;SDS011;24447;43.460;25.744;2023-04-15T01:52:46;4.78;;;2.50;;
38693;SDS011;24447;43.460;25.744;2023-04-15T01:55:12;3.97;;;1.80;;
38693;SDS011;24447;43.460;25.744;2023-04-15T01:57:39;2.85;;;1.05;;
38693;SDS011;24447;43.460;25.744;2023-04-15T02:00:05;4.90;;;1.73;;
38693;SDS011;24447;43.460;25.744;2023-04-15T02:02:32;3.25;;;1.85;;
38693;SDS011;24447;43.460;25.744;2023-04-15T02:04:58;4.35;;;2.03;;
38693;SDS011;24447;43.460;25.744;2023-04-15T02:07:24;5.05;;;1.52;;
38693;SDS011;24447;43.460;25.744;2023-04-15T02:09:50;1.77;;;1.65;;
38693;SDS011;24447;43.460;25.744;2023-04-15T02:12:17;5.07;;;2.05;;
38693;SDS011;24447;43.460;25.744;2023-04-15T02:14:43;5.45;;;1.80;;
38693;SDS011;24447;43.460;25.744;2023-04-15T02:17:09;3.78;;;1.10;;
38693;SDS011;24447;43.460;25.744;2023-04-15T02:19:35;4.78;;;1.00;;
38693;SDS011;24447;43.460;25.744;2023-04-15T02:22:01;5.05;;;2.13;;
38693;SDS011;24447;43.460;25.744;2023-04-15T02:24:27;3.00;;;1.58;;
38693;SDS011;24447;43.460;25.744;2023-04-15T02:26:54;5.70;;;2.17;;
38693;SDS011;24447;43.460;25.744;2023-04-15T02:29:20;3.15;;;1.75;;
38693;SDS011;24447;43.460;25.744;2023-04-15T02:31:47;4.40;;;1.55;;
38693;SDS011;24447;43.460;25.744;2023-04-15T02:34:13;3.83;;;1.10;;
38693;SDS011;24447;43.460;25.744;2023-04-15T02:36:39;52.22;;;25.70;;
38693;SDS011;24447;43.460;25.744;2023-04-15T02:39:05;24.63;;;12.15;;
38693;SDS011;24447;43.460;25.744;2023-04-15T02:41:31;20.65;;;10.73;;
38693;SDS011;24447;43.460;25.744;2023-04-15T02:43:57;13.50;;;6.15;;
38693;SDS011;24447;43.460;25.744;2023-04-15T02:46:23;9.43;;;3.80;;
38693;SDS011;24447;43.460;25.744;2023-04-15T02:48:49;7.40;;;2.55;;
38693;SDS011;24447;43.460;25.744;2023-04-15T02:51:18;3.45;;;1.48;;
38693;SDS011;24447;43.460;25.744;2023-04-15T02:53:47;4.40;;;1.20;;
38693;SDS011;24447;43.460;25.744;2023-04-15T02:56:14;1.95;;;1.20;;
38693;SDS011;24447;43.460;25.744;2023-04-15T02:58:41;7.78;;;1.33;;
38693;SDS011;24447;43.460;25.744;2023-04-15T03:01:09;1.40;;;1.30;;
38693;SDS011;24447;43.460;25.744;2023-04-15T03:03:35;2.30;;;1.25;;
38693;SDS011;24447;43.460;25.744;2023-04-15T03:06:01;3.10;;;1.67;;
38693;SDS011;24447;43.460;25.744;2023-04-15T03:08:27;3.53;;;1.77;;
38693;SDS011;24447;43.460;25.744;2023-04-15T03:10:53;36.67;;;11.65;;
38693;SDS011;24447;43.460;25.744;2023-04-15T03:13:19;4.38;;;2.78;;
38693;SDS011;24447;43.460;25.744;2023-04-15T03:15:46;4.72;;;2.78;;
38693;SDS011;24447;43.460;25.744;2023-04-15T03:18:12;4.78;;;1.90;;
38693;SDS011;24447;43.460;25.744;2023-04-15T03:20:38;2.97;;;1.75;;
38693;SDS011;24447;43.460;25.744;2023-04-15T03:23:04;5.80;;;2.03;;
38693;SDS011;24447;43.460;25.744;2023-04-15T03:25:30;3.13;;;1.77;;
38693;SDS011;24447;43.460;25.744;2023-04-15T03:27:56;4.28;;;1.40;;
38693;SDS011;24447;43.460;25.744;2023-04-15T03:30:22;5.38;;;2.47;;
38693;SDS011;24447;43.460;25.744;2023-04-15T03:32:48;5.95;;;2.10;;
38693;SDS011;24447;43.460;25.744;2023-04-15T03:35:14;5.30;;;2.20;;
38693;SDS011;24447;43.460;25.744;2023-04-15T03:37:40;3.92;;;2.88;;
38693;SDS011;24447;43.460;25.744;2023-04-15T03:40:06;10.82;;;3.83;;
38693;SDS011;24447;43.460;25.744;2023-04-15T03:42:33;9.23;;;3.78;;
38693;SDS011;24447;43.460;25.744;2023-04-15T03:44:59;3.85;;;2.42;;
38693;SDS011;24447;43.460;25.744;2023-04-15T03:47:25;7.78;;;4.45;;
38693;SDS011;24447;43.460;25.744;2023-04-15T03:49:51;5.20;;;2.75;;
38693;SDS011;24447;43.460;25.744;2023-04-15T03:52:17;1.98;;;1.60;;
38693;SDS011;24447;43.460;25.744;2023-04-15T03:54:43;1.80;;;1.23;;
38693;SDS011;24447;43.460;25.744;2023-04-15T03:57:09;6.40;;;1.70;;
38693;SDS011;24447;43.460;25.744;2023-04-15T03:59:35;6.85;;;2.47;;
38693;SDS011;24447;43.460;25.744;2023-04-15T04:02:01;3.35;;;2.05;;
38693;SDS011;24447;43.460;25.744;2023-04-15T04:04:26;2.67;;;1.60;;
38693;SDS011;24447;43.460;25.744;2023-04-15T04:06:52;6.85;;;3.33;;
38693;SDS011;24447;43.460;25.744;2023-04-15T04:09:18;9.93;;;3.95;;
38693;SDS011;24447;43.460;25.744;2023-04-15T04:11:44;3.28;;;2.03;;
38693;SDS011;24447;43.460;25.744;2023-04-15T04:14:10;3.55;;;1.90;;
38693;SDS011;24447;43.460;25.744;2023-04-15T04:16:36;3.53;;;2.13;;
38693;SDS011;24447;43.460;25.744;2023-04-15T04:19:02;1.88;;;1.77;;
38693;SDS011;24447;43.460;25.744;2023-04-15T04:21:28;8.55;;;3.67;;
38693;SDS011;24447;43.460;25.744;2023-04-15T04:23:54;14.77;;;4.68;;
38693;SDS011;24447;43.460;25.744;2023-04-15T04:26:20;11.88;;;5.07;;
38693;SDS011;24447;43.460;25.744;2023-04-15T04:28:46;11.40;;;4.18;;
38693;SDS011;24447;43.460;25.744;2023-04-15T04:31:12;8.95;;;2.95;;
38693;SDS011;24447;43.460;25.744;2023-04-15T04:33:38;6.15;;;2.90;;
38693;SDS011;24447;43.460;25.744;2023-04-15T04:36:05;8.05;;;3.78;;
38693;SDS011;24447;43.460;25.744;2023-04-15T04:38:31;13.38;;;4.53;;
38693;SDS011;24447;43.460;25.744;2023-04-15T04:40:57;8.85;;;4.72;;
38693;SDS011;24447;43.460;25.744;2023-04-15T04:43:23;13.48;;;4.78;;
38693;SDS011;24447;43.460;25.744;2023-04-15T04:45:49;9.60;;;4.65;;
38693;SDS011;24447;43.460;25.744;2023-04-15T04:48:15;16.10;;;5.00;;
38693;SDS011;24447;43.460;25.744;2023-04-15T04:50:41;8.25;;;3.45;;
38693;SDS011;24447;43.460;25.744;2023-04-15T04:53:07;6.25;;;3.25;;
38693;SDS011;24447;43.460;25.744;2023-04-15T04:55:33;16.13;;;5.53;;
38693;SDS011;24447;43.460;25.744;2023-04-15T04:58:01;18.77;;;6.40;;
38693;SDS011;24447;43.460;25.744;2023-04-15T05:00:27;24.95;;;8.70;;
38693;SDS011;24447;43.460;25.744;2023-04-15T05:02:53;20.95;;;7.40;;
38693;SDS011;24447;43.460;25.744;2023-04-15T05:05:19;25.17;;;9.23;;
38693;SDS011;24447;43.460;25.744;2023-04-15T05:07:46;16.00;;;6.53;;
38693;SDS011;24447;43.460;25.744;2023-04-15T05:10:14;33.15;;;11.23;;
38693;SDS011;24447;43.460;25.744;2023-04-15T05:12:42;49.58;;;18.13;;
38693;SDS011;24447;43.460;25.744;2023-04-15T05:15:08;42.05;;;15.18;;
38693;SDS011;24447;43.460;25.744;2023-04-15T05:17:34;24.10;;;8.32;;
38693;SDS011;24447;43.460;25.744;2023-04-15T05:20:01;15.68;;;6.18;;
38693;SDS011;24447;43.460;25.744;2023-04-15T05:22:27;13.90;;;5.95;;
38693;SDS011;24447;43.460;25.744;2023-04-15T05:24:53;23.05;;;6.88;;
38693;SDS011;24447;43.460;25.744;2023-04-15T05:27:19;21.02;;;7.30;;
38693;SDS011;24447;43.460;25.744;2023-04-15T05:29:46;19.63;;;8.35;;
38693;SDS011;24447;43.460;25.744;2023-04-15T05:32:12;21.10;;;8.40;;
38693;SDS011;24447;43.460;25.744;2023-04-15T05:34:38;24.25;;;9.05;;
38693;SDS011;24447;43.460;25.744;2023-04-15T05:37:04;25.92;;;10.52;;
38693;SDS011;24447;43.460;25.744;2023-04-15T05:39:30;25.33;;;11.63;;
38693;SDS011;24447;43.460;25.744;2023-04-15T05:41:56;19.35;;;8.32;;
38693;SDS011;24447;43.460;25.744;2023-04-15T05:44:23;15.70;;;7.57;;
38693;SDS011;24447;43.460;25.744;2023-04-15T05:46:50;10.57;;;5.28;;
38693;SDS011;24447;43.460;25.744;2023-04-15T05:49:16;13.30;;;5.38;;
38693;SDS011;24447;43.460;25.744;2023-04-15T05:51:42;11.02;;;4.40;;
38693;SDS011;24447;43.460;25.744;2023-04-15T05:54:08;12.75;;;4.93;;
38693;SDS011;24447;43.460;25.744;2023-04-15T05:56:34;11.70;;;4.15;;
38693;SDS011;24447;43.460;25.744;2023-04-15T05:59:00;11.57;;;4.10;;
38693;SDS011;24447;43.460;25.744;2023-04-15T06:01:26;12.50;;;4.85;;
38693;SDS011;24447;43.460;25.744;2023-04-15T06:03:52;18.48;;;7.63;;
38693;SDS011;24447;43.460;25.744;2023-04-15T06:06:18;15.90;;;6.18;;
38693;SDS011;24447;43.460;25.744;2023-04-15T06:08:44;18.45;;;7.18;;
38693;SDS011;24447;43.460;25.744;2023-04-15T06:11:10;16.17;;;7.50;;
38693;SDS011;24447;43.460;25.744;2023-04-15T06:13:36;18.15;;;7.50;;
38693;SDS011;24447;43.460;25.744;2023-04-15T06:16:02;15.10;;;7.10;;
38693;SDS011;24447;43.460;25.744;2023-04-15T06:18:28;12.30;;;5.38;;
38693;SDS011;24447;43.460;25.744;2023-04-15T06:20:54;12.45;;;5.43;;
38693;SDS011;24447;43.460;25.744;2023-04-15T06:23:20;16.63;;;6.82;;
38693;SDS011;24447;43.460;25.744;2023-04-15T06:25:46;14.93;;;6.68;;
38693;SDS011;24447;43.460;25.744;2023-04-15T06:28:12;17.25;;;7.00;;
38693;SDS011;24447;43.460;25.744;2023-04-15T06:30:38;18.40;;;7.32;;
38693;SDS011;24447;43.460;25.744;2023-04-15T06:33:04;13.27;;;5.88;;
38693;SDS011;24447;43.460;25.744;2023-04-15T06:35:30;14.20;;;5.15;;
38693;SDS011;24447;43.460;25.744;2023-04-15T06:37:56;13.93;;;6.43;;
38693;SDS011;24447;43.460;25.744;2023-04-15T06:40:22;9.05;;;4.22;;
38693;SDS011;24447;43.460;25.744;2023-04-15T06:42:48;12.85;;;4.82;;
38693;SDS011;24447;43.460;25.744;2023-04-15T06:45:14;11.38;;;5.80;;
38693;SDS011;24447;43.460;25.744;2023-04-15T06:47:41;9.77;;;4.13;;
38693;SDS011;24447;43.460;25.744;2023-04-15T06:50:07;6.47;;;3.50;;
38693;SDS011;24447;43.460;25.744;2023-04-15T06:52:34;5.25;;;2.70;;
38693;SDS011;24447;43.460;25.744;2023-04-15T06:55:00;7.15;;;3.45;;
38693;SDS011;24447;43.460;25.744;2023-04-15T06:57:26;7.78;;;3.80;;
38693;SDS011;24447;43.460;25.744;2023-04-15T06:59:53;5.80;;;3.00;;
38693;SDS011;24447;43.460;25.744;2023-04-15T07:02:19;7.63;;;3.08;;
38693;SDS011;24447;43.460;25.744;2023-04-15T07:04:45;6.60;;;3.33;;
38693;SDS011;24447;43.460;25.744;2023-04-15T07:07:11;7.03;;;3.03;;
38693;SDS011;24447;43.460;25.744;2023-04-15T07:09:37;11.82;;;3.72;;
38693;SDS011;24447;43.460;25.744;2023-04-15T07:12:03;8.63;;;3.15;;
38693;SDS011;24447;43.460;25.744;2023-04-15T07:14:29;7.28;;;3.15;;
38693;SDS011;24447;43.460;25.744;2023-04-15T07:16:55;12.60;;;4.10;;
38693;SDS011;24447;43.460;25.744;2023-04-15T07:19:21;10.00;;;3.72;;
38693;SDS011;24447;43.460;25.744;2023-04-15T07:21:48;9.65;;;4.35;;
38693;SDS011;24447;43.460;25.744;2023-04-15T07:24:14;7.65;;;3.33;;
38693;SDS011;24447;43.460;25.744;2023-04-15T07:26:42;11.25;;;4.80;;
38693;SDS011;24447;43.460;25.744;2023-04-15T07:29:09;17.95;;;5.85;;
38693;SDS011;24447;43.460;25.744;2023-04-15T07:31:35;16.92;;;5.40;;
38693;SDS011;24447;43.460;25.744;2023-04-15T07:34:01;7.70;;;3.30;;
38693;SDS011;24447;43.460;25.744;2023-04-15T07:36:28;6.53;;;3.08;;
38693;SDS011;24447;43.460;25.744;2023-04-15T07:38:54;8.57;;;3.30;;
38693;SDS011;24447;43.460;25.744;2023-04-15T07:41:20;8.27;;;3.35;;
38693;SDS011;24447;43.460;25.744;2023-04-15T07:43:46;16.85;;;5.35;;
38693;SDS011;24447;43.460;25.744;2023-04-15T07:46:13;13.52;;;4.85;;
38693;SDS011;24447;43.460;25.744;2023-04-15T07:48:39;4.13;;;2.15;;
38693;SDS011;24447;43.460;25.744;2023-04-15T07:51:05;4.57;;;2.22;;
38693;SDS011;24447;43.460;25.744;2023-04-15T07:53:31;4.57;;;2.20;;
38693;SDS011;24447;43.460;25.744;2023-04-15T07:55:57;5.43;;;2.67;;
38693;SDS011;24447;43.460;25.744;2023-04-15T07:58:23;8.57;;;2.10;;
38693;SDS011;24447;43.460;25.744;2023-04-15T08:00:50;3.63;;;1.90;;
38693;SDS011;24447;43.460;25.744;2023-04-15T08:03:16;8.95;;;3.65;;
38693;SDS011;24447;43.460;25.744;2023-04-15T08:05:42;5.30;;;2.38;;
38693;SDS011;24447;43.460;25.744;2023-04-15T08:08:08;7.90;;;3.83;;
38693;SDS011;24447;43.460;25.744;2023-04-15T08:10:34;7.40;;;2.22;;
38693;SDS011;24447;43.460;25.744;2023-04-15T08:13:01;8.50;;;2.92;;
38693;SDS011;24447;43.460;25.744;2023-04-15T08:15:26;14.18;;;2.72;;
38693;SDS011;24447;43.460;25.744;2023-04-15T08:17:52;24.13;;;14.93;;
38693;SDS011;24447;43.460;25.744;2023-04-15T08:20:18;10.20;;;5.32;;
38693;SDS011;24447;43.460;25.744;2023-04-15T08:22:44;3.03;;;1.83;;
38693;SDS011;24447;43.460;25.744;2023-04-15T08:25:11;3.72;;;2.78;;
38693;SDS011;24447;43.460;25.744;2023-04-15T08:27:37;5.18;;;2.30;;
38693;SDS011;24447;43.460;25.744;2023-04-15T08:30:03;8.05;;;2.65;;
38693;SDS011;24447;43.460;25.744;2023-04-15T08:32:30;7.47;;;3.25;;
38693;SDS011;24447;43.460;25.744;2023-04-15T08:34:56;12.10;;;4.07;;
38693;SDS011;24447;43.460;25.744;2023-04-15T08:37:21;19.40;;;9.45;;
38693;SDS011;24447;43.460;25.744;2023-04-15T08:39:48;16.90;;;4.10;;
38693;SDS011;24447;43.460;25.744;2023-04-15T08:42:18;14.60;;;3.72;;
38693;SDS011;24447;43.460;25.744;2023-04-15T08:44:48;8.57;;;2.90;;
38693;SDS011;24447;43.460;25.744;2023-04-15T08:47:15;4.13;;;2.20;;
38693;SDS011;24447;43.460;25.744;2023-04-15T08:49:46;7.22;;;2.33;;
38693;SDS011;24447;43.460;25.744;2023-04-15T08:52:17;10.13;;;2.97;;
38693;SDS011;24447;43.460;25.744;2023-04-15T08:54:44;8.30;;;2.65;;
38693;SDS011;24447;43.460;25.744;2023-04-15T08:57:10;5.82;;;2.47;;
38693;SDS011;24447;43.460;25.744;2023-04-15T08:59:37;7.40;;;2.67;;
38693;SDS011;24447;43.460;25.744;2023-04-15T09:02:03;4.93;;;2.47;;
38693;SDS011;24447;43.460;25.744;2023-04-15T09:04:29;3.53;;;1.90;;
38693;SDS011;24447;43.460;25.744;2023-04-15T09:06:56;6.00;;;2.83;;
38693;SDS011;24447;43.460;25.744;2023-04-15T09:09:22;3.72;;;2.20;;
38693;SDS011;24447;43.460;25.744;2023-04-15T09:11:48;4.88;;;2.25;;
38693;SDS011;24447;43.460;25.744;2023-04-15T09:14:15;6.03;;;2.30;;
38693;SDS011;24447;43.460;25.744;2023-04-15T09:16:57;4.18;;;1.85;;
38693;SDS011;24447;43.460;25.744;2023-04-15T09:19:27;5.53;;;2.58;;
38693;SDS011;24447;43.460;25.744;2023-04-15T09:21:53;4.45;;;1.95;;
38693;SDS011;24447;43.460;25.744;2023-04-15T09:24:21;6.10;;;2.15;;
38693;SDS011;24447;43.460;25.744;2023-04-15T09:26:47;3.65;;;1.52;;
38693;SDS011;24447;43.460;25.744;2023-04-15T09:31:43;5.53;;;2.03;;
38693;SDS011;24447;43.460;25.744;2023-04-15T09:34:09;3.50;;;1.45;;
38693;SDS011;24447;43.460;25.744;2023-04-15T09:36:37;3.08;;;2.15;;
38693;SDS011;24447;43.460;25.744;2023-04-15T09:39:16;3.55;;;2.17;;
38693;SDS011;24447;43.460;25.744;2023-04-15T09:41:42;4.80;;;1.85;;
38693;SDS011;24447;43.460;25.744;2023-04-15T09:44:22;3.60;;;1.90;;
38693;SDS011;24447;43.460;25.744;2023-04-15T09:46:49;3.20;;;1.38;;
38693;SDS011;24447;43.460;25.744;2023-04-15T09:49:15;3.85;;;1.67;;
38693;SDS011;24447;43.460;25.744;2023-04-15T09:51:42;3.45;;;1.63;;
38693;SDS011;24447;43.460;25.744;2023-04-15T09:54:08;1.17;;;0.90;;
38693;SDS011;24447;43.460;25.744;2023-04-15T09:56:35;3.25;;;1.38;;
38693;SDS011;24447;43.460;25.744;2023-04-15T09:59:03;2.90;;;1.65;;
38693;SDS011;24447;43.460;25.744;2023-04-15T10:01:30;2.67;;;0.98;;
38693;SDS011;24447;43.460;25.744;2023-04-15T10:03:56;1.17;;;1.02;;
38693;SDS011;24447;43.460;25.744;2023-04-15T10:06:23;5.07;;;0.82;;
38693;SDS011;24447;43.460;25.744;2023-04-15T10:08:51;2.58;;;1.27;;
38693;SDS011;24447;43.460;25.744;2023-04-15T10:11:20;2.05;;;1.13;;
38693;SDS011;24447;43.460;25.744;2023-04-15T10:13:48;1.92;;;1.30;;
38693;SDS011;24447;43.460;25.744;2023-04-15T10:16:15;6.25;;;1.55;;
38693;SDS011;24447;43.460;25.744;2023-04-15T10:18:45;3.85;;;1.42;;
38693;SDS011;24447;43.460;25.744;2023-04-15T10:21:12;4.60;;;1.25;;
38693;SDS011;24447;43.460;25.744;2023-04-15T10:23:42;2.72;;;1.25;;
38693;SDS011;24447;43.460;25.744;2023-04-15T10:26:10;2.15;;;1.40;;
38693;SDS011;24447;43.460;25.744;2023-04-15T10:28:38;1.83;;;0.90;;
38693;SDS011;24447;43.460;25.744;2023-04-15T10:31:05;3.25;;;1.20;;
38693;SDS011;24447;43.460;25.744;2023-04-15T10:33:31;5.35;;;1.20;;
38693;SDS011;24447;43.460;25.744;2023-04-15T10:35:58;0.85;;;0.55;;
38693;SDS011;24447;43.460;25.744;2023-04-15T10:38:34;5.32;;;1.38;;
38693;SDS011;24447;43.460;25.744;2023-04-15T10:41:18;2.67;;;1.40;;
38693;SDS011;24447;43.460;25.744;2023-04-15T10:43:53;1.23;;;1.10;;
38693;SDS011;24447;43.460;25.744;2023-04-15T10:46:21;2.92;;;0.98;;
38693;SDS011;24447;43.460;25.744;2023-04-15T10:48:50;3.28;;;1.48;;
38693;SDS011;24447;43.460;25.744;2023-04-15T10:51:29;1.75;;;1.17;;
38693;SDS011;24447;43.460;25.744;2023-04-15T10:53:57;5.40;;;1.60;;
38693;SDS011;24447;43.460;25.744;2023-04-15T10:56:24;3.67;;;1.30;;
38693;SDS011;24447;43.460;25.744;2023-04-15T10:58:50;2.13;;;1.05;;
38693;SDS011;24447;43.460;25.744;2023-04-15T11:01:18;2.30;;;0.88;;
38693;SDS011;24447;43.460;25.744;2023-04-15T11:03:47;0.63;;;0.60;;
38693;SDS011;24447;43.460;25.744;2023-04-15T11:06:14;2.10;;;1.10;;
38693;SDS011;24447;43.460;25.744;2023-04-15T11:08:54;4.07;;;1.17;;
38693;SDS011;24447;43.460;25.744;2023-04-15T11:11:22;2.50;;;0.93;;
38693;SDS011;24447;43.460;25.744;2023-04-15T11:13:51;6.55;;;1.40;;
38693;SDS011;24447;43.460;25.744;2023-04-15T11:16:18;1.48;;;0.82;;
38693;SDS011;24447;43.460;25.744;2023-04-15T11:18:52;0.82;;;0.63;;
38693;SDS011;24447;43.460;25.744;2023-04-15T11:21:23;5.05;;;1.02;;
38693;SDS011;24447;43.460;25.744;2023-04-15T11:23:50;1.98;;;0.88;;
38693;SDS011;24447;43.460;25.744;2023-04-15T11:26:16;2.00;;;1.20;;
38693;SDS011;24447;43.460;25.744;2023-04-15T11:28:43;1.80;;;0.82;;
38693;SDS011;24447;43.460;25.744;2023-04-15T11:31:14;3.55;;;1.10;;
38693;SDS011;24447;43.460;25.744;2023-04-15T11:33:54;10.48;;;1.70;;
38693;SDS011;24447;43.460;25.744;2023-04-15T11:36:23;2.70;;;0.80;;
38693;SDS011;24447;43.460;25.744;2023-04-15T11:38:52;1.98;;;1.38;;
38693;SDS011;24447;43.460;25.744;2023-04-15T11:41:19;3.45;;;1.15;;
38693;SDS011;24447;43.460;25.744;2023-04-15T11:43:46;0.75;;;0.68;;
38693;SDS011;24447;43.460;25.744;2023-04-15T11:46:12;1.02;;;0.70;;
38693;SDS011;24447;43.460;25.744;2023-04-15T11:48:41;2.90;;;1.15;;
38693;SDS011;24447;43.460;25.744;2023-04-15T11:51:08;1.38;;;0.85;;
38693;SDS011;24447;43.460;25.744;2023-04-15T11:53:42;0.63;;;0.55;;
38693;SDS011;24447;43.460;25.744;2023-04-15T11:56:10;2.28;;;0.77;;
38693;SDS011;24447;43.460;25.744;2023-04-15T11:58:42;1.85;;;1.35;;
38693;SDS011;24447;43.460;25.744;2023-04-15T12:01:10;1.77;;;1.00;;
38693;SDS011;24447;43.460;25.744;2023-04-15T12:06:30;0.65;;;0.65;;
38693;SDS011;24447;43.460;25.744;2023-04-15T12:09:09;2.08;;;0.50;;
38693;SDS011;24447;43.460;25.744;2023-04-15T12:11:49;0.82;;;0.68;;
38693;SDS011;24447;43.460;25.744;2023-04-15T12:14:26;2.00;;;0.70;;
38693;SDS011;24447;43.460;25.744;2023-04-15T12:17:00;3.15;;;0.93;;
38693;SDS011;24447;43.460;25.744;2023-04-15T12:19:28;2.15;;;1.33;;
38693;SDS011;24447;43.460;25.744;2023-04-15T12:24:30;3.95;;;1.42;;
38693;SDS011;24447;43.460;25.744;2023-04-15T12:26:57;2.45;;;1.25;;
38693;SDS011;24447;43.460;25.744;2023-04-15T12:29:33;2.25;;;1.10;;
38693;SDS011;24447;43.460;25.744;2023-04-15T12:32:09;1.63;;;0.90;;
38693;SDS011;24447;43.460;25.744;2023-04-15T12:34:41;3.45;;;1.20;;
38693;SDS011;24447;43.460;25.744;2023-04-15T12:37:10;3.97;;;1.63;;
38693;SDS011;24447;43.460;25.744;2023-04-15T12:39:38;3.25;;;1.02;;
38693;SDS011;24447;43.460;25.744;2023-04-15T12:42:06;1.67;;;1.02;;
38693;SDS011;24447;43.460;25.744;2023-04-15T12:44:34;3.53;;;1.05;;
38693;SDS011;24447;43.460;25.744;2023-04-15T12:47:01;0.80;;;0.68;;
38693;SDS011;24447;43.460;25.744;2023-04-15T12:49:27;1.98;;;1.08;;
38693;SDS011;24447;43.460;25.744;2023-04-15T12:51:54;1.42;;;1.05;;
38693;SDS011;24447;43.460;25.744;2023-04-15T12:54:21;1.25;;;1.10;;
38693;SDS011;24447;43.460;25.744;2023-04-15T12:56:48;1.40;;;1.05;;
38693;SDS011;24447;43.460;25.744;2023-04-15T12:59:15;2.03;;;0.77;;
38693;SDS011;24447;43.460;25.744;2023-04-15T13:01:45;4.45;;;1.13;;
38693;SDS011;24447;43.460;25.744;2023-04-15T13:04:12;3.13;;;0.80;;
38693;SDS011;24447;43.460;25.744;2023-04-15T13:06:38;1.58;;;1.48;;
38693;SDS011;24447;43.460;25.744;2023-04-15T13:09:04;4.13;;;0.65;;
38693;SDS011;24447;43.460;25.744;2023-04-15T13:11:30;2.35;;;1.08;;
38693;SDS011;24447;43.460;25.744;2023-04-15T13:13:58;2.20;;;0.88;;
38693;SDS011;24447;43.460;25.744;2023-04-15T13:16:25;2.28;;;1.30;;
38693;SDS011;24447;43.460;25.744;2023-04-15T13:18:51;3.53;;;1.20;;
38693;SDS011;24447;43.460;25.744;2023-04-15T13:21:17;2.88;;;1.05;;
38693;SDS011;24447;43.460;25.744;2023-04-15T13:23:44;3.25;;;0.98;;
38693;SDS011;24447;43.460;25.744;2023-04-15T13:26:10;3.17;;;1.67;;
38693;SDS011;24447;43.460;25.744;2023-04-15T13:28:36;3.22;;;1.65;;
38693;SDS011;24447;43.460;25.744;2023-04-15T13:31:02;3.90;;;2.05;;
38693;SDS011;24447;43.460;25.744;2023-04-15T13:33:28;2.92;;;0.82;;
38693;SDS011;24447;43.460;25.744;2023-04-15T13:35:54;2.28;;;0.98;;
38693;SDS011;24447;43.460;25.744;2023-04-15T13:38:20;1.35;;;1.25;;
38693;SDS011;24447;43.460;25.744;2023-04-15T13:40:46;1.52;;;1.42;;
38693;SDS011;24447;43.460;25.744;2023-04-15T13:43:12;5.28;;;2.28;;
38693;SDS011;24447;43.460;25.744;2023-04-15T13:45:38;1.63;;;1.02;;
38693;SDS011;24447;43.460;25.744;2023-04-15T13:48:04;5.32;;;1.75;;
38693;SDS011;24447;43.460;25.744;2023-04-15T13:50:30;1.95;;;1.20;;
38693;SDS011;24447;43.460;25.744;2023-04-15T13:52:56;2.25;;;1.17;;
38693;SDS011;24447;43.460;25.744;2023-04-15T13:55:22;2.60;;;1.10;;
38693;SDS011;24447;43.460;25.744;2023-04-15T13:57:48;0.85;;;0.70;;
38693;SDS011;24447;43.460;25.744;2023-04-15T14:00:14;3.83;;;1.08;;
38693;SDS011;24447;43.460;25.744;2023-04-15T14:02:40;1.65;;;0.70;;
38693;SDS011;24447;43.460;25.744;2023-04-15T14:05:07;2.80;;;1.10;;
38693;SDS011;24447;43.460;25.744;2023-04-15T14:07:33;6.72;;;1.17;;
38693;SDS011;24447;43.460;25.744;2023-04-15T14:09:59;1.75;;;0.95;;
38693;SDS011;24447;43.460;25.744;2023-04-15T14:12:25;3.40;;;0.90;;
38693;SDS011;24447;43.460;25.744;2023-04-15T14:14:51;5.00;;;0.98;;
38693;SDS011;24447;43.460;25.744;2023-04-15T14:17:17;2.97;;;1.60;;
38693;SDS011;24447;43.460;25.744;2023-04-15T14:19:43;4.30;;;0.98;;
38693;SDS011;24447;43.460;25.744;2023-04-15T14:22:09;6.25;;;1.35;;
38693;SDS011;24447;43.460;25.744;2023-04-15T14:24:35;3.30;;;1.20;;
38693;SDS011;24447;43.460;25.744;2023-04-15T14:27:01;2.60;;;1.30;;
38693;SDS011;24447;43.460;25.744;2023-04-15T14:29:27;0.93;;;0.70;;
38693;SDS011;24447;43.460;25.744;2023-04-15T14:31:53;3.67;;;0.95;;
38693;SDS011;24447;43.460;25.744;2023-04-15T14:34:21;3.65;;;0.90;;
38693;SDS011;24447;43.460;25.744;2023-04-15T14:36:49;3.70;;;1.10;;